sensor_id;sensor_type;location;lat;lon;timestamp;temperature;humidity
65207;SHT31;58477;48.072;11.970;2023-06-22T00:00:51;19.35;85.11
65207;SHT31;58477;48.072;11.970;2023-06-22T00:03:21;19.35;85.32
65207;SHT31;58477;48.072;11.970;2023-06-22T00:05:47;19.30;85.23
65207;SHT31;58477;48.072;11.970;2023-06-22T00:08:13;19.21;85.62
65207;SHT31;58477;48.072;11.970;2023-06-22T00:10:39;19.11;85.77
65207;SHT31;58477;48.072;11.970;2023-06-22T00:13:06;19.12;85.86
65207;SHT31;58477;48.072;11.970;2023-06-22T00:15:33;19.18;85.75
65207;SHT31;58477;48.072;11.970;2023-06-22T00:17:59;19.18;85.65
65207;SHT31;58477;48.072;11.970;2023-06-22T00:20:25;19.07;85.79
65207;SHT31;58477;48.072;11.970;2023-06-22T00:22:57;19.15;85.47
65207;SHT31;58477;48.072;11.970;2023-06-22T00:25:23;19.18;85.29
65207;SHT31;58477;48.072;11.970;2023-06-22T00:27:49;19.17;85.26
65207;SHT31;58477;48.072;11.970;2023-06-22T00:30:18;19.25;84.99
65207;SHT31;58477;48.072;11.970;2023-06-22T00:32:44;19.28;84.96
65207;SHT31;58477;48.072;11.970;2023-06-22T00:35:11;19.24;84.95
65207;SHT31;58477;48.072;11.970;2023-06-22T00:37:37;19.22;85.11
65207;SHT31;58477;48.072;11.970;2023-06-22T00:40:06;19.22;85.02
65207;SHT31;58477;48.072;11.970;2023-06-22T00:42:34;19.22;84.87
65207;SHT31;58477;48.072;11.970;2023-06-22T00:44:59;19.38;84.53
65207;SHT31;58477;48.072;11.970;2023-06-22T00:47:25;19.36;84.36
65207;SHT31;58477;48.072;11.970;2023-06-22T00:49:51;19.28;84.65
65207;SHT31;58477;48.072;11.970;2023-06-22T00:52:17;19.24;84.73
65207;SHT31;58477;48.072;11.970;2023-06-22T00:54:47;19.21;84.91
65207;SHT31;58477;48.072;11.970;2023-06-22T00:57:14;19.15;85.08
65207;SHT31;58477;48.072;11.970;2023-06-22T00:59:44;19.15;85.14
65207;SHT31;58477;48.072;11.970;2023-06-22T01:02:09;19.20;85.12
65207;SHT31;58477;48.072;11.970;2023-06-22T01:04:36;19.28;84.96
65207;SHT31;58477;48.072;11.970;2023-06-22T01:12:25;19.22;85.38
65207;SHT31;58477;48.072;11.970;2023-06-22T01:14:59;19.22;85.42
65207;SHT31;58477;48.072;11.970;2023-06-22T01:17:27;19.12;85.69
65207;SHT31;58477;48.072;11.970;2023-06-22T01:19:55;19.12;85.90
65207;SHT31;58477;48.072;11.970;2023-06-22T01:22:25;19.14;85.89
65207;SHT31;58477;48.072;11.970;2023-06-22T01:25:26;19.14;85.92
65207;SHT31;58477;48.072;11.970;2023-06-22T01:28:03;19.14;85.91
65207;SHT31;58477;48.072;11.970;2023-06-22T01:30:31;19.08;86.13
65207;SHT31;58477;48.072;11.970;2023-06-22T01:33:00;18.94;86.49
65207;SHT31;58477;48.072;11.970;2023-06-22T01:35:27;18.76;87.03
65207;SHT31;58477;48.072;11.970;2023-06-22T01:37:54;18.71;87.23
65207;SHT31;58477;48.072;11.970;2023-06-22T01:40:21;18.78;87.20
65207;SHT31;58477;48.072;11.970;2023-06-22T01:42:47;18.74;87.30
65207;SHT31;58477;48.072;11.970;2023-06-22T01:45:14;18.59;87.89
65207;SHT31;58477;48.072;11.970;2023-06-22T01:47:40;18.57;88.07
65207;SHT31;58477;48.072;11.970;2023-06-22T01:50:06;18.59;88.13
65207;SHT31;58477;48.072;11.970;2023-06-22T01:52:32;18.54;88.23
65207;SHT31;58477;48.072;11.970;2023-06-22T01:54:59;18.46;88.51
65207;SHT31;58477;48.072;11.970;2023-06-22T01:57:26;18.49;88.44
65207;SHT31;58477;48.072;11.970;2023-06-22T02:00:04;18.49;88.55
65207;SHT31;58477;48.072;11.970;2023-06-22T02:02:52;18.46;88.58
65207;SHT31;58477;48.072;11.970;2023-06-22T02:05:19;18.36;88.86
65207;SHT31;58477;48.072;11.970;2023-06-22T02:07:53;18.42;88.87
65207;SHT31;58477;48.072;11.970;2023-06-22T02:10:23;18.47;88.64
65207;SHT31;58477;48.072;11.970;2023-06-22T02:12:50;18.49;88.69
65207;SHT31;58477;48.072;11.970;2023-06-22T02:15:16;18.52;88.75
65207;SHT31;58477;48.072;11.970;2023-06-22T02:17:42;18.43;88.94
65207;SHT31;58477;48.072;11.970;2023-06-22T02:20:14;18.39;89.14
65207;SHT31;58477;48.072;11.970;2023-06-22T02:22:41;18.36;89.24
65207;SHT31;58477;48.072;11.970;2023-06-22T02:25:09;18.32;89.45
65207;SHT31;58477;48.072;11.970;2023-06-22T02:27:35;18.19;89.79
65207;SHT31;58477;48.072;11.970;2023-06-22T02:30:00;18.28;89.66
65207;SHT31;58477;48.072;11.970;2023-06-22T02:32:25;18.25;89.85
65207;SHT31;58477;48.072;11.970;2023-06-22T02:34:52;18.26;89.84
65207;SHT31;58477;48.072;11.970;2023-06-22T02:37:18;18.14;90.17
65207;SHT31;58477;48.072;11.970;2023-06-22T02:39:43;18.14;90.28
65207;SHT31;58477;48.072;11.970;2023-06-22T02:42:09;18.02;90.59
65207;SHT31;58477;48.072;11.970;2023-06-22T02:44:36;18.05;90.70
65207;SHT31;58477;48.072;11.970;2023-06-22T02:47:01;18.03;90.95
65207;SHT31;58477;48.072;11.970;2023-06-22T02:49:27;18.12;90.80
65207;SHT31;58477;48.072;11.970;2023-06-22T02:51:53;18.09;90.97
65207;SHT31;58477;48.072;11.970;2023-06-22T02:54:21;18.14;90.90
65207;SHT31;58477;48.072;11.970;2023-06-22T02:56:49;18.10;91.02
65207;SHT31;58477;48.072;11.970;2023-06-22T02:59:17;18.03;91.36
65207;SHT31;58477;48.072;11.970;2023-06-22T03:01:44;17.99;91.35
65207;SHT31;58477;48.072;11.970;2023-06-22T03:04:20;17.88;91.60
65207;SHT31;58477;48.072;11.970;2023-06-22T03:06:46;17.95;91.49
65207;SHT31;58477;48.072;11.970;2023-06-22T03:09:16;17.92;91.47
65207;SHT31;58477;48.072;11.970;2023-06-22T03:11:42;17.98;91.23
65207;SHT31;58477;48.072;11.970;2023-06-22T03:14:07;17.98;91.18
65207;SHT31;58477;48.072;11.970;2023-06-22T03:16:33;18.01;91.01
65207;SHT31;58477;48.072;11.970;2023-06-22T03:18:59;17.96;91.22
65207;SHT31;58477;48.072;11.970;2023-06-22T03:21:28;17.85;91.67
65207;SHT31;58477;48.072;11.970;2023-06-22T03:23:54;17.83;91.69
65207;SHT31;58477;48.072;11.970;2023-06-22T03:26:19;17.88;91.62
65207;SHT31;58477;48.072;11.970;2023-06-22T03:28:45;17.79;91.75
65207;SHT31;58477;48.072;11.970;2023-06-22T03:31:11;17.89;91.52
65207;SHT31;58477;48.072;11.970;2023-06-22T03:33:39;17.86;91.35
65207;SHT31;58477;48.072;11.970;2023-06-22T03:36:04;17.91;90.94
65207;SHT31;58477;48.072;11.970;2023-06-22T03:38:30;17.98;90.69
65207;SHT31;58477;48.072;11.970;2023-06-22T03:40:56;17.89;90.65
65207;SHT31;58477;48.072;11.970;2023-06-22T03:43:23;17.93;90.51
65207;SHT31;58477;48.072;11.970;2023-06-22T03:45:48;17.83;90.45
65207;SHT31;58477;48.072;11.970;2023-06-22T03:48:14;17.81;90.40
65207;SHT31;58477;48.072;11.970;2023-06-22T03:50:39;17.85;89.90
65207;SHT31;58477;48.072;11.970;2023-06-22T03:53:05;18.01;89.13
65207;SHT31;58477;48.072;11.970;2023-06-22T03:55:30;18.05;88.72
65207;SHT31;58477;48.072;11.970;2023-06-22T03:57:56;18.22;88.25
65207;SHT31;58477;48.072;11.970;2023-06-22T04:00:25;18.29;88.02
65207;SHT31;58477;48.072;11.970;2023-06-22T04:02:50;18.22;87.98
65207;SHT31;58477;48.072;11.970;2023-06-22T04:05:16;18.32;87.84
65207;SHT31;58477;48.072;11.970;2023-06-22T04:07:44;18.40;87.50
65207;SHT31;58477;48.072;11.970;2023-06-22T04:10:09;18.47;87.27
65207;SHT31;58477;48.072;11.970;2023-06-22T04:12:35;18.53;87.00
65207;SHT31;58477;48.072;11.970;2023-06-22T04:15:01;18.63;86.82
65207;SHT31;58477;48.072;11.970;2023-06-22T04:17:26;18.64;86.87
65207;SHT31;58477;48.072;11.970;2023-06-22T04:19:52;18.60;86.98
65207;SHT31;58477;48.072;11.970;2023-06-22T04:22:20;18.70;86.74
65207;SHT31;58477;48.072;11.970;2023-06-22T04:24:46;18.84;86.51
65207;SHT31;58477;48.072;11.970;2023-06-22T04:27:11;19.01;85.92
65207;SHT31;58477;48.072;11.970;2023-06-22T04:29:37;19.12;85.76
65207;SHT31;58477;48.072;11.970;2023-06-22T04:32:03;19.27;85.48
65207;SHT31;58477;48.072;11.970;2023-06-22T04:34:31;19.52;84.78
65207;SHT31;58477;48.072;11.970;2023-06-22T04:36:57;19.61;84.85
65207;SHT31;58477;48.072;11.970;2023-06-22T04:39:23;19.69;84.55
65207;SHT31;58477;48.072;11.970;2023-06-22T04:41:49;19.61;85.01
65207;SHT31;58477;48.072;11.970;2023-06-22T04:44:17;19.55;85.24
65207;SHT31;58477;48.072;11.970;2023-06-22T04:47:00;19.61;85.11
65207;SHT31;58477;48.072;11.970;2023-06-22T04:49:29;19.82;84.76
65207;SHT31;58477;48.072;11.970;2023-06-22T04:52:00;20.09;83.93
65207;SHT31;58477;48.072;11.970;2023-06-22T04:54:25;20.15;83.86
65207;SHT31;58477;48.072;11.970;2023-06-22T04:56:51;20.32;83.42
65207;SHT31;58477;48.072;11.970;2023-06-22T04:59:29;20.56;82.81
65207;SHT31;58477;48.072;11.970;2023-06-22T05:02:00;21.00;81.53
65207;SHT31;58477;48.072;11.970;2023-06-22T05:04:27;21.51;80.93
65207;SHT31;58477;48.072;11.970;2023-06-22T05:06:53;22.46;78.23
65207;SHT31;58477;48.072;11.970;2023-06-22T05:09:20;22.80;76.99
65207;SHT31;58477;48.072;11.970;2023-06-22T05:11:46;23.28;75.39
65207;SHT31;58477;48.072;11.970;2023-06-22T05:14:12;22.86;76.73
65207;SHT31;58477;48.072;11.970;2023-06-22T05:16:38;22.81;76.84
65207;SHT31;58477;48.072;11.970;2023-06-22T05:19:03;23.32;75.74
65207;SHT31;58477;48.072;11.970;2023-06-22T05:21:30;23.28;75.60
65207;SHT31;58477;48.072;11.970;2023-06-22T05:23:56;23.38;75.38
65207;SHT31;58477;48.072;11.970;2023-06-22T05:26:25;23.11;76.02
65207;SHT31;58477;48.072;11.970;2023-06-22T05:28:51;23.12;75.48
65207;SHT31;58477;48.072;11.970;2023-06-22T05:31:17;23.05;75.46
65207;SHT31;58477;48.072;11.970;2023-06-22T05:33:45;23.41;75.07
65207;SHT31;58477;48.072;11.970;2023-06-22T05:36:11;23.61;74.55
65207;SHT31;58477;48.072;11.970;2023-06-22T05:38:38;24.29;72.74
65207;SHT31;58477;48.072;11.970;2023-06-22T05:41:04;25.18;70.64
65207;SHT31;58477;48.072;11.970;2023-06-22T05:43:30;24.94;71.16
65207;SHT31;58477;48.072;11.970;2023-06-22T05:45:55;25.35;69.73
65207;SHT31;58477;48.072;11.970;2023-06-22T05:48:20;25.82;69.21
65207;SHT31;58477;48.072;11.970;2023-06-22T05:50:46;26.10;67.90
65207;SHT31;58477;48.072;11.970;2023-06-22T05:53:11;25.88;68.30
65207;SHT31;58477;48.072;11.970;2023-06-22T05:55:37;25.72;69.18
65207;SHT31;58477;48.072;11.970;2023-06-22T05:58:02;26.23;68.22
65207;SHT31;58477;48.072;11.970;2023-06-22T06:00:31;26.30;67.43
65207;SHT31;58477;48.072;11.970;2023-06-22T06:02:57;26.47;67.45
65207;SHT31;58477;48.072;11.970;2023-06-22T06:05:22;26.36;67.90
65207;SHT31;58477;48.072;11.970;2023-06-22T06:07:49;26.94;66.85
65207;SHT31;58477;48.072;11.970;2023-06-22T06:10:14;27.42;65.36
65207;SHT31;58477;48.072;11.970;2023-06-22T06:12:40;27.86;64.22
65207;SHT31;58477;48.072;11.970;2023-06-22T06:15:06;28.39;63.06
65207;SHT31;58477;48.072;11.970;2023-06-22T06:17:32;28.30;63.31
65207;SHT31;58477;48.072;11.970;2023-06-22T06:19:59;28.39;61.83
65207;SHT31;58477;48.072;11.970;2023-06-22T06:22:24;28.58;61.93
65207;SHT31;58477;48.072;11.970;2023-06-22T06:24:50;28.16;62.76
65207;SHT31;58477;48.072;11.970;2023-06-22T06:27:15;27.99;63.37
65207;SHT31;58477;48.072;11.970;2023-06-22T06:29:43;28.61;62.46
65207;SHT31;58477;48.072;11.970;2023-06-22T06:32:11;28.46;62.61
65207;SHT31;58477;48.072;11.970;2023-06-22T06:34:36;28.21;63.29
65207;SHT31;58477;48.072;11.970;2023-06-22T06:37:02;28.10;62.66
65207;SHT31;58477;48.072;11.970;2023-06-22T06:39:27;28.23;62.78
65207;SHT31;58477;48.072;11.970;2023-06-22T06:41:52;28.51;62.10
65207;SHT31;58477;48.072;11.970;2023-06-22T06:44:19;29.33;60.51
65207;SHT31;58477;48.072;11.970;2023-06-22T06:46:44;29.01;62.34
65207;SHT31;58477;48.072;11.970;2023-06-22T06:49:09;29.62;60.03
65207;SHT31;58477;48.072;11.970;2023-06-22T06:51:35;29.53;60.29
65207;SHT31;58477;48.072;11.970;2023-06-22T06:54:01;29.86;60.09
65207;SHT31;58477;48.072;11.970;2023-06-22T06:56:28;29.70;59.87
65207;SHT31;58477;48.072;11.970;2023-06-22T06:58:57;30.16;59.23
65207;SHT31;58477;48.072;11.970;2023-06-22T07:01:23;29.41;60.95
65207;SHT31;58477;48.072;11.970;2023-06-22T07:03:49;29.95;59.11
65207;SHT31;58477;48.072;11.970;2023-06-22T07:06:14;30.21;58.82
65207;SHT31;58477;48.072;11.970;2023-06-22T07:08:41;29.65;60.38
65207;SHT31;58477;48.072;11.970;2023-06-22T07:11:08;30.56;58.79
65207;SHT31;58477;48.072;11.970;2023-06-22T07:13:33;30.75;58.59
65207;SHT31;58477;48.072;11.970;2023-06-22T07:15:59;30.13;59.87
65207;SHT31;58477;48.072;11.970;2023-06-22T07:18:24;30.47;58.90
65207;SHT31;58477;48.072;11.970;2023-06-22T07:20:49;30.06;58.95
65207;SHT31;58477;48.072;11.970;2023-06-22T07:23:16;29.87;59.83
65207;SHT31;58477;48.072;11.970;2023-06-22T07:25:42;30.10;59.05
65207;SHT31;58477;48.072;11.970;2023-06-22T07:28:08;29.46;60.61
65207;SHT31;58477;48.072;11.970;2023-06-22T07:30:34;30.41;58.54
65207;SHT31;58477;48.072;11.970;2023-06-22T07:33:00;30.74;57.77
65207;SHT31;58477;48.072;11.970;2023-06-22T07:35:30;30.72;57.72
65207;SHT31;58477;48.072;11.970;2023-06-22T07:37:56;31.46;56.76
65207;SHT31;58477;48.072;11.970;2023-06-22T07:40:21;31.56;56.95
65207;SHT31;58477;48.072;11.970;2023-06-22T07:42:47;31.22;57.13
65207;SHT31;58477;48.072;11.970;2023-06-22T07:45:13;30.74;58.11
65207;SHT31;58477;48.072;11.970;2023-06-22T07:47:39;31.34;56.68
65207;SHT31;58477;48.072;11.970;2023-06-22T07:50:05;31.83;55.84
65207;SHT31;58477;48.072;11.970;2023-06-22T07:52:31;31.92;55.66
65207;SHT31;58477;48.072;11.970;2023-06-22T07:54:56;30.78;58.58
65207;SHT31;58477;48.072;11.970;2023-06-22T07:57:22;31.19;57.04
65207;SHT31;58477;48.072;11.970;2023-06-22T07:59:47;30.06;59.73
65207;SHT31;58477;48.072;11.970;2023-06-22T08:02:13;31.14;58.01
65207;SHT31;58477;48.072;11.970;2023-06-22T08:04:39;31.19;58.47
65207;SHT31;58477;48.072;11.970;2023-06-22T08:07:05;30.88;58.51
65207;SHT31;58477;48.072;11.970;2023-06-22T08:09:32;31.08;57.52
65207;SHT31;58477;48.072;11.970;2023-06-22T08:11:58;31.01;57.52
65207;SHT31;58477;48.072;11.970;2023-06-22T08:14:27;31.41;57.07
65207;SHT31;58477;48.072;11.970;2023-06-22T08:16:53;31.66;56.73
65207;SHT31;58477;48.072;11.970;2023-06-22T08:19:18;30.61;58.98
65207;SHT31;58477;48.072;11.970;2023-06-22T08:21:44;30.81;58.41
65207;SHT31;58477;48.072;11.970;2023-06-22T08:24:09;30.81;58.32
65207;SHT31;58477;48.072;11.970;2023-06-22T08:26:35;31.65;56.98
65207;SHT31;58477;48.072;11.970;2023-06-22T08:29:03;31.38;57.18
65207;SHT31;58477;48.072;11.970;2023-06-22T08:31:28;31.66;57.14
65207;SHT31;58477;48.072;11.970;2023-06-22T08:33:54;32.21;56.16
65207;SHT31;58477;48.072;11.970;2023-06-22T08:36:19;32.49;55.56
65207;SHT31;58477;48.072;11.970;2023-06-22T08:38:45;32.37;55.17
65207;SHT31;58477;48.072;11.970;2023-06-22T08:41:15;32.59;54.33
65207;SHT31;58477;48.072;11.970;2023-06-22T08:43:41;33.38;52.52
65207;SHT31;58477;48.072;11.970;2023-06-22T08:46:08;33.56;52.69
65207;SHT31;58477;48.072;11.970;2023-06-22T08:48:33;32.29;54.58
65207;SHT31;58477;48.072;11.970;2023-06-22T08:50:59;33.24;53.85
65207;SHT31;58477;48.072;11.970;2023-06-22T08:53:24;32.95;54.27
65207;SHT31;58477;48.072;11.970;2023-06-22T08:55:50;32.84;54.95
65207;SHT31;58477;48.072;11.970;2023-06-22T08:58:16;33.32;53.34
65207;SHT31;58477;48.072;11.970;2023-06-22T09:00:41;32.78;55.04
65207;SHT31;58477;48.072;11.970;2023-06-22T09:03:07;33.14;53.72
65207;SHT31;58477;48.072;11.970;2023-06-22T09:05:33;32.85;53.83
65207;SHT31;58477;48.072;11.970;2023-06-22T09:07:58;33.19;53.28
65207;SHT31;58477;48.072;11.970;2023-06-22T09:10:24;33.62;52.76
65207;SHT31;58477;48.072;11.970;2023-06-22T09:12:50;33.24;53.62
65207;SHT31;58477;48.072;11.970;2023-06-22T09:15:15;34.03;52.74
65207;SHT31;58477;48.072;11.970;2023-06-22T09:17:41;33.25;52.60
65207;SHT31;58477;48.072;11.970;2023-06-22T09:20:07;33.54;51.91
65207;SHT31;58477;48.072;11.970;2023-06-22T09:22:35;33.89;52.40
65207;SHT31;58477;48.072;11.970;2023-06-22T09:25:01;34.20;50.78
65207;SHT31;58477;48.072;11.970;2023-06-22T09:27:26;33.79;51.18
65207;SHT31;58477;48.072;11.970;2023-06-22T09:29:52;34.24;50.62
65207;SHT31;58477;48.072;11.970;2023-06-22T09:32:17;34.20;51.21
65207;SHT31;58477;48.072;11.970;2023-06-22T09:34:43;33.51;53.14
65207;SHT31;58477;48.072;11.970;2023-06-22T09:37:08;34.70;49.77
65207;SHT31;58477;48.072;11.970;2023-06-22T09:39:33;35.14;49.68
65207;SHT31;58477;48.072;11.970;2023-06-22T09:41:59;35.11;48.95
65207;SHT31;58477;48.072;11.970;2023-06-22T09:44:27;35.58;49.20
65207;SHT31;58477;48.072;11.970;2023-06-22T09:46:53;35.23;49.34
65207;SHT31;58477;48.072;11.970;2023-06-22T09:49:18;35.72;48.37
65207;SHT31;58477;48.072;11.970;2023-06-22T09:51:44;35.96;47.97
65207;SHT31;58477;48.072;11.970;2023-06-22T09:54:09;35.10;49.33
65207;SHT31;58477;48.072;11.970;2023-06-22T09:56:34;35.24;48.57
65207;SHT31;58477;48.072;11.970;2023-06-22T09:59:00;34.70;49.35
65207;SHT31;58477;48.072;11.970;2023-06-22T10:01:25;34.39;49.74
65207;SHT31;58477;48.072;11.970;2023-06-22T10:03:52;34.54;50.32
65207;SHT31;58477;48.072;11.970;2023-06-22T10:06:21;35.33;49.18
65207;SHT31;58477;48.072;11.970;2023-06-22T10:08:46;35.44;48.17
65207;SHT31;58477;48.072;11.970;2023-06-22T10:11:13;35.18;48.50
65207;SHT31;58477;48.072;11.970;2023-06-22T10:13:39;35.93;47.08
65207;SHT31;58477;48.072;11.970;2023-06-22T10:16:04;35.23;49.04
65207;SHT31;58477;48.072;11.970;2023-06-22T10:18:30;35.52;48.03
65207;SHT31;58477;48.072;11.970;2023-06-22T10:20:56;35.07;48.82
65207;SHT31;58477;48.072;11.970;2023-06-22T10:23:22;35.99;47.25
65207;SHT31;58477;48.072;11.970;2023-06-22T10:25:48;35.98;47.08
65207;SHT31;58477;48.072;11.970;2023-06-22T10:28:14;35.68;47.88
65207;SHT31;58477;48.072;11.970;2023-06-22T10:30:40;36.66;45.67
65207;SHT31;58477;48.072;11.970;2023-06-22T10:33:12;35.85;46.46
65207;SHT31;58477;48.072;11.970;2023-06-22T10:35:37;34.44;49.51
65207;SHT31;58477;48.072;11.970;2023-06-22T10:38:03;35.58;47.09
65207;SHT31;58477;48.072;11.970;2023-06-22T10:40:29;36.30;46.52
65207;SHT31;58477;48.072;11.970;2023-06-22T10:42:54;36.29;45.66
65207;SHT31;58477;48.072;11.970;2023-06-22T10:45:20;36.86;45.91
65207;SHT31;58477;48.072;11.970;2023-06-22T10:47:46;37.21;45.61
65207;SHT31;58477;48.072;11.970;2023-06-22T10:50:11;36.73;46.93
65207;SHT31;58477;48.072;11.970;2023-06-22T10:52:37;37.03;45.22
65207;SHT31;58477;48.072;11.970;2023-06-22T10:55:03;36.36;46.36
65207;SHT31;58477;48.072;11.970;2023-06-22T10:57:29;36.91;44.72
65207;SHT31;58477;48.072;11.970;2023-06-22T10:59:54;35.58;47.25
65207;SHT31;58477;48.072;11.970;2023-06-22T11:02:20;36.50;45.46
65207;SHT31;58477;48.072;11.970;2023-06-22T11:04:45;36.98;44.66
65207;SHT31;58477;48.072;11.970;2023-06-22T11:07:11;36.96;44.64
65207;SHT31;58477;48.072;11.970;2023-06-22T11:09:36;37.28;44.46
65207;SHT31;58477;48.072;11.970;2023-06-22T11:12:03;37.75;45.02
65207;SHT31;58477;48.072;11.970;2023-06-22T11:14:29;37.38;45.05
65207;SHT31;58477;48.072;11.970;2023-06-22T11:16:54;36.76;45.77
65207;SHT31;58477;48.072;11.970;2023-06-22T11:19:21;36.49;46.03
65207;SHT31;58477;48.072;11.970;2023-06-22T11:21:46;36.83;46.21
65207;SHT31;58477;48.072;11.970;2023-06-22T11:24:12;36.50;46.83
65207;SHT31;58477;48.072;11.970;2023-06-22T11:26:37;36.97;46.27
65207;SHT31;58477;48.072;11.970;2023-06-22T11:29:03;36.87;46.53
65207;SHT31;58477;48.072;11.970;2023-06-22T11:31:32;37.74;45.52
65207;SHT31;58477;48.072;11.970;2023-06-22T11:33:57;36.49;47.65
65207;SHT31;58477;48.072;11.970;2023-06-22T11:36:23;36.64;47.43
65207;SHT31;58477;48.072;11.970;2023-06-22T11:38:48;35.65;48.21
65207;SHT31;58477;48.072;11.970;2023-06-22T11:41:14;34.95;49.22
65207;SHT31;58477;48.072;11.970;2023-06-22T11:43:39;34.60;50.03
65207;SHT31;58477;48.072;11.970;2023-06-22T11:46:05;34.83;48.88
65207;SHT31;58477;48.072;11.970;2023-06-22T11:48:30;34.57;49.40
65207;SHT31;58477;48.072;11.970;2023-06-22T11:50:56;34.39;51.12
65207;SHT31;58477;48.072;11.970;2023-06-22T11:53:24;34.29;50.97
65207;SHT31;58477;48.072;11.970;2023-06-22T11:55:49;34.08;51.69
65207;SHT31;58477;48.072;11.970;2023-06-22T11:58:16;34.71;49.92
65207;SHT31;58477;48.072;11.970;2023-06-22T12:00:41;34.56;50.20
65207;SHT31;58477;48.072;11.970;2023-06-22T12:03:07;35.51;48.63
65207;SHT31;58477;48.072;11.970;2023-06-22T12:05:33;36.30;47.47
65207;SHT31;58477;48.072;11.970;2023-06-22T12:07:58;36.19;47.78
65207;SHT31;58477;48.072;11.970;2023-06-22T12:10:25;35.82;48.35
65207;SHT31;58477;48.072;11.970;2023-06-22T12:12:51;36.35;47.62
65207;SHT31;58477;48.072;11.970;2023-06-22T12:15:16;36.70;46.86
65207;SHT31;58477;48.072;11.970;2023-06-22T12:17:42;36.26;46.58
65207;SHT31;58477;48.072;11.970;2023-06-22T12:20:08;36.36;46.40
65207;SHT31;58477;48.072;11.970;2023-06-22T12:22:34;35.74;48.09
65207;SHT31;58477;48.072;11.970;2023-06-22T12:25:00;34.29;50.05
65207;SHT31;58477;48.072;11.970;2023-06-22T12:27:25;34.24;50.42
65207;SHT31;58477;48.072;11.970;2023-06-22T12:29:51;34.57;49.46
65207;SHT31;58477;48.072;11.970;2023-06-22T12:32:16;34.33;49.86
65207;SHT31;58477;48.072;11.970;2023-06-22T12:34:42;34.10;50.67
65207;SHT31;58477;48.072;11.970;2023-06-22T12:37:08;34.03;50.97
65207;SHT31;58477;48.072;11.970;2023-06-22T12:39:34;34.70;49.80
65207;SHT31;58477;48.072;11.970;2023-06-22T12:41:59;34.91;49.06
65207;SHT31;58477;48.072;11.970;2023-06-22T12:44:25;34.80;48.95
65207;SHT31;58477;48.072;11.970;2023-06-22T12:46:50;34.59;49.87
65207;SHT31;58477;48.072;11.970;2023-06-22T12:49:15;34.36;49.62
65207;SHT31;58477;48.072;11.970;2023-06-22T12:51:42;34.64;48.87
65207;SHT31;58477;48.072;11.970;2023-06-22T12:54:08;34.60;48.80
65207;SHT31;58477;48.072;11.970;2023-06-22T12:56:34;34.33;49.81
65207;SHT31;58477;48.072;11.970;2023-06-22T12:58:59;34.86;50.15
65207;SHT31;58477;48.072;11.970;2023-06-22T13:01:28;35.48;48.86
65207;SHT31;58477;48.072;11.970;2023-06-22T13:03:53;34.88;49.76
65207;SHT31;58477;48.072;11.970;2023-06-22T13:06:19;34.64;50.93
65207;SHT31;58477;48.072;11.970;2023-06-22T13:08:45;35.04;50.12
65207;SHT31;58477;48.072;11.970;2023-06-22T13:11:10;34.86;50.00
65207;SHT31;58477;48.072;11.970;2023-06-22T13:13:35;34.41;51.35
65207;SHT31;58477;48.072;11.970;2023-06-22T13:16:01;34.17;50.59
65207;SHT31;58477;48.072;11.970;2023-06-22T13:18:27;34.27;51.29
65207;SHT31;58477;48.072;11.970;2023-06-22T13:20:52;34.27;52.48
65207;SHT31;58477;48.072;11.970;2023-06-22T13:23:22;34.57;51.51
65207;SHT31;58477;48.072;11.970;2023-06-22T13:25:48;34.91;50.69
65207;SHT31;58477;48.072;11.970;2023-06-22T13:28:13;34.64;50.62
65207;SHT31;58477;48.072;11.970;2023-06-22T13:30:41;34.83;51.27
65207;SHT31;58477;48.072;11.970;2023-06-22T13:33:07;35.42;50.24
65207;SHT31;58477;48.072;11.970;2023-06-22T13:35:32;35.44;50.28
65207;SHT31;58477;48.072;11.970;2023-06-22T13:37:58;35.71;49.89
65207;SHT31;58477;48.072;11.970;2023-06-22T13:40:23;35.11;50.77
65207;SHT31;58477;48.072;11.970;2023-06-22T13:42:49;34.23;52.22
65207;SHT31;58477;48.072;11.970;2023-06-22T13:45:14;34.71;50.63
65207;SHT31;58477;48.072;11.970;2023-06-22T13:47:42;35.30;50.20
65207;SHT31;58477;48.072;11.970;2023-06-22T13:50:08;35.15;50.26
65207;SHT31;58477;48.072;11.970;2023-06-22T13:52:33;34.19;51.89
65207;SHT31;58477;48.072;11.970;2023-06-22T13:54:59;34.05;51.96
65207;SHT31;58477;48.072;11.970;2023-06-22T13:57:24;34.00;52.08
65207;SHT31;58477;48.072;11.970;2023-06-22T13:59:50;33.68;52.83
65207;SHT31;58477;48.072;11.970;2023-06-22T14:02:15;33.92;52.82
65207;SHT31;58477;48.072;11.970;2023-06-22T14:04:41;34.15;52.19
65207;SHT31;58477;48.072;11.970;2023-06-22T14:07:06;33.73;52.62
65207;SHT31;58477;48.072;11.970;2023-06-22T14:09:31;34.33;51.75
65207;SHT31;58477;48.072;11.970;2023-06-22T14:11:57;34.61;51.39
65207;SHT31;58477;48.072;11.970;2023-06-22T14:14:22;35.30;50.25
65207;SHT31;58477;48.072;11.970;2023-06-22T14:16:48;35.30;50.74
65207;SHT31;58477;48.072;11.970;2023-06-22T14:19:17;35.93;49.10
65207;SHT31;58477;48.072;11.970;2023-06-22T14:21:43;35.78;49.63
65207;SHT31;58477;48.072;11.970;2023-06-22T14:24:08;34.95;50.57
65207;SHT31;58477;48.072;11.970;2023-06-22T14:26:33;35.44;49.74
65207;SHT31;58477;48.072;11.970;2023-06-22T14:28:59;34.86;50.63
65207;SHT31;58477;48.072;11.970;2023-06-22T14:31:24;34.84;51.79
65207;SHT31;58477;48.072;11.970;2023-06-22T14:33:50;34.86;50.08
65207;SHT31;58477;48.072;11.970;2023-06-22T14:36:16;34.50;51.86
65207;SHT31;58477;48.072;11.970;2023-06-22T14:38:43;34.73;50.62
65207;SHT31;58477;48.072;11.970;2023-06-22T14:41:08;34.54;51.57
65207;SHT31;58477;48.072;11.970;2023-06-22T14:43:33;34.97;50.81
65207;SHT31;58477;48.072;11.970;2023-06-22T14:45:59;35.05;49.98
65207;SHT31;58477;48.072;11.970;2023-06-22T14:48:24;34.68;50.61
65207;SHT31;58477;48.072;11.970;2023-06-22T14:50:50;34.30;51.02
65207;SHT31;58477;48.072;11.970;2023-06-22T14:53:15;34.63;50.80
65207;SHT31;58477;48.072;11.970;2023-06-22T14:55:41;34.56;51.22
65207;SHT31;58477;48.072;11.970;2023-06-22T14:58:06;34.90;50.36
65207;SHT31;58477;48.072;11.970;2023-06-22T15:00:32;34.61;50.90
65207;SHT31;58477;48.072;11.970;2023-06-22T15:02:57;34.05;51.88
65207;SHT31;58477;48.072;11.970;2023-06-22T15:05:24;34.30;51.22
65207;SHT31;58477;48.072;11.970;2023-06-22T15:07:50;34.24;51.81
65207;SHT31;58477;48.072;11.970;2023-06-22T15:10:15;34.17;51.33
65207;SHT31;58477;48.072;11.970;2023-06-22T15:12:41;34.20;51.36
65207;SHT31;58477;48.072;11.970;2023-06-22T15:15:07;34.67;51.36